Airfield :
LOGIN :

Register | Disclaimer

   EN    FR    IT 

 










Legend :    VFR   Marginal VFR   IFR   Intensive IFR   Very Intensive IFR
Visi :
Ceiling :
>= 8 km
>= 3000ft
5 to 8 km
1000 to 3000 ft
1500m to 5 km
500 to 1000 ft
800 to 1500m
200 to 500 ft
< 800m
< 200 ft
Symbols :   Thunderstorms  Fog  Heavy snow  Heavy precipitations  Wind > 20 kt
SIGMETs :     Misc.  Thunderstorms  Icing  Turbulence  Mountain Waves  Volcanic Ashes







- Airport Elevation : 297 ft


EGVP - Middle Wallop

CURRENT METAR :
  • 220850Z 21016KT 9999 BKN016 14/10 Q1000 WHT TEMPO SCT014 GRN

EXPIRED METARs :
  • 220750Z 20014KT 9999 BKN013 OVC015 14/11 Q1000 GRN NOSIG
  • 220650Z 22014KT 9999 -RA BKN014 OVC015 13/10 Q1001 GRN

TAF TAF EGVP
Valid from the 22 at 09:00 until the 22 at 18:00 UTC


220734Z 2209/2218 21015G25KT 9999 FEW014 BKN018
TEMPO 2209/2218 19020G35KT FEW018 BKN030
PROB40
TEMPO 2209/2218 7000 -RA BKN014
ATIS : +44 1980 674 142
No reported NOTAMs for that airfield.
2 SIGMETs reported for the London FIR (EGTT) :
 
Severe turbulence
EGTT SIGMET 03 VALID 220803/221000 EGRR
EGTT LONDON FIR SEV TURB FCST WI N5100 W00800 - N5220 W00530 - N5318 W00530 - N5348 W00353 - N5139 W00412 - N5047 W00532 - N4920 W00534 - N4850 W00800 - N5100 W00800 SFC/FL060 MOV E 10KT INTSF=
Severe mountain waves
EGTT SIGMET 02 VALID 220600/221000 EGRR
EGTT LONDON FIR SEV MTW FCST WI N5500 E00045 - N5412 E00110 - N5047 W00255 - N5045 W00430 - N5310 W00414 - N5500 W00415 - N5500 E00045 FL040/180 STNR NC=



MET'MAP, your aeronautical weather chart ! - Copyright ORBIFLY December 2007 - Disclaimer

ORBIFLY MET'MAP TEAM :

Programming & Development : Alexandra Zaïnal
Concept & Development : Baudouin d'Aumeries
Co-Development & Prog : Marc-Olivier Méhu
Technical & hardware support : Manuel Goepfert

Contact : metmap@orbifly.com




SOURCES & CREDITS :

   NOAA